sensor_id;sensor_type;location;lat;lon;timestamp;pressure;altitude;pressure_sealevel;temperature;humidity
21086;BME280;72320;50.082;20.000;2023-12-20T00:00:19;98559.13;;;9.31;49.58
21086;BME280;72320;50.082;20.000;2023-12-20T00:02:45;98557.39;;;9.30;49.59
21086;BME280;72320;50.082;20.000;2023-12-20T00:05:15;98549.44;;;9.26;49.69
21086;BME280;72320;50.082;20.000;2023-12-20T00:07:41;98546.69;;;9.20;49.74
21086;BME280;72320;50.082;20.000;2023-12-20T00:10:08;98545.88;;;9.19;49.92
21086;BME280;72320;50.082;20.000;2023-12-20T00:12:34;98540.98;;;9.18;50.06
21086;BME280;72320;50.082;20.000;2023-12-20T00:15:00;98545.39;;;9.18;50.17
21086;BME280;72320;50.082;20.000;2023-12-20T00:17:26;98540.54;;;9.18;50.36
21086;BME280;72320;50.082;20.000;2023-12-20T00:19:52;98532.80;;;9.15;50.51
21086;BME280;72320;50.082;20.000;2023-12-20T00:22:18;98531.05;;;9.17;50.50
21086;BME280;72320;50.082;20.000;2023-12-20T00:24:44;98532.70;;;9.16;50.71
21086;BME280;72320;50.082;20.000;2023-12-20T00:27:09;98533.65;;;9.12;50.94
21086;BME280;72320;50.082;20.000;2023-12-20T00:29:35;98533.35;;;9.14;50.98
21086;BME280;72320;50.082;20.000;2023-12-20T00:32:01;98527.48;;;9.19;50.87
21086;BME280;72320;50.082;20.000;2023-12-20T00:34:27;98522.33;;;9.22;50.80
21086;BME280;72320;50.082;20.000;2023-12-20T00:36:53;98510.30;;;9.25;50.89
21086;BME280;72320;50.082;20.000;2023-12-20T00:39:20;98506.52;;;9.26;50.98
21086;BME280;72320;50.082;20.000;2023-12-20T00:41:52;98511.35;;;9.30;50.90
21086;BME280;72320;50.082;20.000;2023-12-20T00:44:21;98504.88;;;9.31;50.93
21086;BME280;72320;50.082;20.000;2023-12-20T00:46:48;98502.80;;;9.33;50.92
21086;BME280;72320;50.082;20.000;2023-12-20T00:49:17;98500.83;;;9.36;50.75
21086;BME280;72320;50.082;20.000;2023-12-20T00:51:45;98500.19;;;9.37;50.80
21086;BME280;72320;50.082;20.000;2023-12-20T00:54:12;98500.60;;;9.36;50.72
21086;BME280;72320;50.082;20.000;2023-12-20T00:56:39;98510.79;;;9.40;50.80
21086;BME280;72320;50.082;20.000;2023-12-20T00:59:06;98507.01;;;9.38;50.87
21086;BME280;72320;50.082;20.000;2023-12-20T01:01:33;98500.73;;;9.37;50.98
21086;BME280;72320;50.082;20.000;2023-12-20T01:03:59;98502.80;;;9.36;50.85
21086;BME280;72320;50.082;20.000;2023-12-20T01:06:25;98502.70;;;9.34;50.78
21086;BME280;72320;50.082;20.000;2023-12-20T01:08:51;98501.80;;;9.30;50.55
21086;BME280;72320;50.082;20.000;2023-12-20T01:11:17;98500.92;;;9.30;50.63
21086;BME280;72320;50.082;20.000;2023-12-20T01:13:43;98498.20;;;9.33;50.48
21086;BME280;72320;50.082;20.000;2023-12-20T01:16:12;98506.45;;;9.36;50.46
21086;BME280;72320;50.082;20.000;2023-12-20T01:18:39;98503.08;;;9.32;50.37
21086;BME280;72320;50.082;20.000;2023-12-20T01:21:05;98491.95;;;9.27;50.27
21086;BME280;72320;50.082;20.000;2023-12-20T01:23:32;98484.77;;;9.22;50.26
21086;BME280;72320;50.082;20.000;2023-12-20T01:25:58;98484.40;;;9.17;50.33
21086;BME280;72320;50.082;20.000;2023-12-20T01:28:28;98484.38;;;9.10;50.26
21086;BME280;72320;50.082;20.000;2023-12-20T01:30:54;98477.35;;;9.08;50.04
21086;BME280;72320;50.082;20.000;2023-12-20T01:33:20;98471.30;;;9.04;50.02
21086;BME280;72320;50.082;20.000;2023-12-20T01:35:45;98472.80;;;9.00;49.89
21086;BME280;72320;50.082;20.000;2023-12-20T01:38:11;98466.39;;;8.98;49.88
21086;BME280;72320;50.082;20.000;2023-12-20T01:40:38;98459.77;;;8.97;49.84
21086;BME280;72320;50.082;20.000;2023-12-20T01:43:08;98448.70;;;8.92;50.00
21086;BME280;72320;50.082;20.000;2023-12-20T01:45:38;98443.34;;;8.86;50.35
21086;BME280;72320;50.082;20.000;2023-12-20T01:48:05;98440.18;;;8.78;50.99
21086;BME280;72320;50.082;20.000;2023-12-20T01:50:36;98432.02;;;8.67;51.50
21086;BME280;72320;50.082;20.000;2023-12-20T01:53:07;98432.67;;;8.56;51.82
21086;BME280;72320;50.082;20.000;2023-12-20T01:55:41;98422.98;;;8.46;51.96
21086;BME280;72320;50.082;20.000;2023-12-20T01:58:09;98416.05;;;8.40;52.01
21086;BME280;72320;50.082;20.000;2023-12-20T02:00:56;98408.50;;;8.37;51.88
21086;BME280;72320;50.082;20.000;2023-12-20T02:03:28;98406.61;;;8.26;51.97
21086;BME280;72320;50.082;20.000;2023-12-20T02:06:01;98402.48;;;8.27;51.92
21086;BME280;72320;50.082;20.000;2023-12-20T02:08:40;98396.61;;;8.26;51.77
21086;BME280;72320;50.082;20.000;2023-12-20T02:11:06;98398.32;;;8.31;51.61
21086;BME280;72320;50.082;20.000;2023-12-20T02:13:32;98397.30;;;8.34;51.52
21086;BME280;72320;50.082;20.000;2023-12-20T02:15:58;98393.47;;;8.35;51.55
21086;BME280;72320;50.082;20.000;2023-12-20T02:18:25;98391.89;;;8.35;51.31
21086;BME280;72320;50.082;20.000;2023-12-20T02:20:51;98389.02;;;8.34;51.20
21086;BME280;72320;50.082;20.000;2023-12-20T02:23:17;98387.44;;;8.28;51.33
21086;BME280;72320;50.082;20.000;2023-12-20T02:25:43;98383.37;;;8.26;51.33
21086;BME280;72320;50.082;20.000;2023-12-20T02:28:09;98384.20;;;8.22;51.48
21086;BME280;72320;50.082;20.000;2023-12-20T02:30:35;98388.67;;;8.21;51.44
21086;BME280;72320;50.082;20.000;2023-12-20T02:33:08;98388.91;;;8.18;51.47
21086;BME280;72320;50.082;20.000;2023-12-20T02:35:37;98389.21;;;8.12;51.67
21086;BME280;72320;50.082;20.000;2023-12-20T02:38:03;98386.36;;;8.12;51.69
21086;BME280;72320;50.082;20.000;2023-12-20T02:40:29;98383.11;;;8.11;51.85
21086;BME280;72320;50.082;20.000;2023-12-20T02:42:55;98380.85;;;8.06;52.20
21086;BME280;72320;50.082;20.000;2023-12-20T02:45:21;98372.33;;;7.98;52.42
21086;BME280;72320;50.082;20.000;2023-12-20T02:47:46;98369.95;;;7.92;52.66
21086;BME280;72320;50.082;20.000;2023-12-20T02:50:12;98367.95;;;7.89;52.77
21086;BME280;72320;50.082;20.000;2023-12-20T02:52:38;98369.77;;;7.83;52.92
21086;BME280;72320;50.082;20.000;2023-12-20T02:55:05;98373.23;;;7.79;53.24
21086;BME280;72320;50.082;20.000;2023-12-20T02:57:30;98370.05;;;7.74;53.35
21086;BME280;72320;50.082;20.000;2023-12-20T02:59:57;98381.62;;;7.70;53.48
21086;BME280;72320;50.082;20.000;2023-12-20T03:02:23;98383.62;;;7.69;53.39
21086;BME280;72320;50.082;20.000;2023-12-20T03:04:49;98381.77;;;7.68;53.19
21086;BME280;72320;50.082;20.000;2023-12-20T03:07:16;98381.27;;;7.67;52.50
21086;BME280;72320;50.082;20.000;2023-12-20T03:09:42;98381.83;;;7.67;52.12
21086;BME280;72320;50.082;20.000;2023-12-20T03:12:08;98382.64;;;7.70;51.71
21086;BME280;72320;50.082;20.000;2023-12-20T03:14:35;98375.35;;;7.76;51.33
21086;BME280;72320;50.082;20.000;2023-12-20T03:17:01;98375.80;;;7.85;51.11
21086;BME280;72320;50.082;20.000;2023-12-20T03:19:27;98373.46;;;7.98;50.60
21086;BME280;72320;50.082;20.000;2023-12-20T03:21:54;98371.34;;;8.12;50.01
21086;BME280;72320;50.082;20.000;2023-12-20T03:24:21;98365.64;;;8.27;49.76
21086;BME280;72320;50.082;20.000;2023-12-20T03:26:50;98366.39;;;8.42;49.23
21086;BME280;72320;50.082;20.000;2023-12-20T03:29:16;98365.20;;;8.56;48.85
21086;BME280;72320;50.082;20.000;2023-12-20T03:31:43;98359.40;;;8.69;48.31
21086;BME280;72320;50.082;20.000;2023-12-20T03:34:09;98363.25;;;8.79;47.49
21086;BME280;72320;50.082;20.000;2023-12-20T03:36:37;98364.78;;;8.94;47.29
21086;BME280;72320;50.082;20.000;2023-12-20T03:39:03;98370.66;;;9.06;47.08
21086;BME280;72320;50.082;20.000;2023-12-20T03:41:35;98370.32;;;9.18;46.60
21086;BME280;72320;50.082;20.000;2023-12-20T03:44:01;98377.05;;;9.27;46.39
21086;BME280;72320;50.082;20.000;2023-12-20T03:46:28;98379.69;;;9.38;46.16
21086;BME280;72320;50.082;20.000;2023-12-20T03:48:53;98381.21;;;9.50;45.82
21086;BME280;72320;50.082;20.000;2023-12-20T03:51:19;98380.11;;;9.62;45.50
21086;BME280;72320;50.082;20.000;2023-12-20T03:53:47;98384.55;;;9.73;45.39
21086;BME280;72320;50.082;20.000;2023-12-20T03:56:14;98384.55;;;9.80;45.53
21086;BME280;72320;50.082;20.000;2023-12-20T03:58:40;98376.34;;;9.85;45.13
21086;BME280;72320;50.082;20.000;2023-12-20T04:54:08;98372.57;;;8.89;49.13
21086;BME280;72320;50.082;20.000;2023-12-20T04:56:35;98379.51;;;9.02;49.46
21086;BME280;72320;50.082;20.000;2023-12-20T04:59:01;98384.42;;;9.06;49.87
21086;BME280;72320;50.082;20.000;2023-12-20T05:01:27;98387.27;;;9.11;50.62
21086;BME280;72320;50.082;20.000;2023-12-20T05:03:53;98391.58;;;9.07;51.65
21086;BME280;72320;50.082;20.000;2023-12-20T05:06:19;98387.41;;;9.07;52.43
21086;BME280;72320;50.082;20.000;2023-12-20T05:08:45;98389.58;;;9.08;53.18
21086;BME280;72320;50.082;20.000;2023-12-20T05:11:11;98378.50;;;9.05;54.54
21086;BME280;72320;50.082;20.000;2023-12-20T05:13:41;98387.34;;;9.03;55.42
21086;BME280;72320;50.082;20.000;2023-12-20T05:16:09;98387.77;;;9.04;56.59
21086;BME280;72320;50.082;20.000;2023-12-20T05:18:36;98383.37;;;9.02;58.14
21086;BME280;72320;50.082;20.000;2023-12-20T05:21:03;98383.13;;;8.98;59.76
21086;BME280;72320;50.082;20.000;2023-12-20T05:23:29;98386.48;;;8.91;61.49
21086;BME280;72320;50.082;20.000;2023-12-20T05:25:55;98387.58;;;8.84;63.53
21086;BME280;72320;50.082;20.000;2023-12-20T05:28:22;98384.95;;;8.77;65.08
21086;BME280;72320;50.082;20.000;2023-12-20T05:30:48;98380.93;;;8.67;68.72
21086;BME280;72320;50.082;20.000;2023-12-20T05:33:15;98379.63;;;8.61;70.16
21086;BME280;72320;50.082;20.000;2023-12-20T05:35:41;98374.31;;;8.58;71.48
21086;BME280;72320;50.082;20.000;2023-12-20T05:38:07;98374.98;;;8.54;73.82
21086;BME280;72320;50.082;20.000;2023-12-20T05:40:33;98362.83;;;8.49;75.10
21086;BME280;72320;50.082;20.000;2023-12-20T05:42:59;98370.21;;;8.45;76.58
21086;BME280;72320;50.082;20.000;2023-12-20T05:45:25;98370.31;;;8.36;78.88
21086;BME280;72320;50.082;20.000;2023-12-20T05:47:51;98376.75;;;8.28;80.57
21086;BME280;72320;50.082;20.000;2023-12-20T05:50:17;98376.50;;;8.19;83.37
21086;BME280;72320;50.082;20.000;2023-12-20T05:52:43;98374.66;;;8.08;84.94
21086;BME280;72320;50.082;20.000;2023-12-20T05:55:08;98371.30;;;8.06;85.75
21086;BME280;72320;50.082;20.000;2023-12-20T05:57:35;98369.93;;;7.98;87.29
21086;BME280;72320;50.082;20.000;2023-12-20T06:00:01;98365.83;;;7.86;88.84
21086;BME280;72320;50.082;20.000;2023-12-20T06:02:26;98358.73;;;7.75;90.50
21086;BME280;72320;50.082;20.000;2023-12-20T06:04:53;98359.64;;;7.67;92.02
21086;BME280;72320;50.082;20.000;2023-12-20T06:07:19;98364.34;;;7.58;93.53
21086;BME280;72320;50.082;20.000;2023-12-20T06:09:45;98370.33;;;7.53;94.24
21086;BME280;72320;50.082;20.000;2023-12-20T06:12:11;98378.18;;;7.49;95.13
21086;BME280;72320;50.082;20.000;2023-12-20T06:14:37;98380.63;;;7.44;96.34
21086;BME280;72320;50.082;20.000;2023-12-20T06:17:03;98384.17;;;7.39;96.87
21086;BME280;72320;50.082;20.000;2023-12-20T06:19:29;98390.05;;;7.37;98.06
21086;BME280;72320;50.082;20.000;2023-12-20T06:21:55;98386.29;;;7.28;99.07
21086;BME280;72320;50.082;20.000;2023-12-20T06:24:21;98390.14;;;7.26;99.48
21086;BME280;72320;50.082;20.000;2023-12-20T06:26:48;98388.41;;;7.28;99.72
21086;BME280;72320;50.082;20.000;2023-12-20T06:29:14;98383.04;;;7.24;100.00
21086;BME280;72320;50.082;20.000;2023-12-20T06:31:40;98383.48;;;7.21;100.00
21086;BME280;72320;50.082;20.000;2023-12-20T06:34:06;98389.59;;;7.16;100.00
21086;BME280;72320;50.082;20.000;2023-12-20T06:36:34;98391.69;;;7.11;100.00
21086;BME280;72320;50.082;20.000;2023-12-20T06:39:01;98391.89;;;7.11;100.00
21086;BME280;72320;50.082;20.000;2023-12-20T06:41:30;98391.64;;;7.09;100.00
21086;BME280;72320;50.082;20.000;2023-12-20T06:43:57;98391.55;;;7.06;100.00
21086;BME280;72320;50.082;20.000;2023-12-20T06:46:24;98390.56;;;7.00;100.00
21086;BME280;72320;50.082;20.000;2023-12-20T06:48:51;98384.88;;;6.90;100.00
21086;BME280;72320;50.082;20.000;2023-12-20T06:51:17;98386.45;;;6.82;100.00
21086;BME280;72320;50.082;20.000;2023-12-20T06:53:45;98386.64;;;6.74;100.00
21086;BME280;72320;50.082;20.000;2023-12-20T06:56:11;98380.96;;;6.72;100.00
21086;BME280;72320;50.082;20.000;2023-12-20T06:58:43;98380.35;;;6.69;100.00
21086;BME280;72320;50.082;20.000;2023-12-20T07:01:14;98385.73;;;6.64;100.00
21086;BME280;72320;50.082;20.000;2023-12-20T07:03:40;98391.48;;;6.62;100.00
21086;BME280;72320;50.082;20.000;2023-12-20T07:06:07;98393.30;;;6.64;100.00
21086;BME280;72320;50.082;20.000;2023-12-20T07:08:33;98391.80;;;6.60;100.00
21086;BME280;72320;50.082;20.000;2023-12-20T07:11:00;98396.06;;;6.57;100.00
21086;BME280;72320;50.082;20.000;2023-12-20T07:13:26;98391.70;;;6.61;100.00
21086;BME280;72320;50.082;20.000;2023-12-20T07:15:52;98391.54;;;6.64;100.00
21086;BME280;72320;50.082;20.000;2023-12-20T07:18:34;98395.55;;;6.64;100.00
21086;BME280;72320;50.082;20.000;2023-12-20T07:21:00;98392.40;;;6.59;100.00
21086;BME280;72320;50.082;20.000;2023-12-20T07:23:28;98397.04;;;6.63;100.00
21086;BME280;72320;50.082;20.000;2023-12-20T07:25:56;98400.98;;;6.62;100.00
21086;BME280;72320;50.082;20.000;2023-12-20T07:28:23;98405.29;;;6.61;100.00
21086;BME280;72320;50.082;20.000;2023-12-20T07:30:50;98405.00;;;6.55;100.00
21086;BME280;72320;50.082;20.000;2023-12-20T07:33:17;98401.69;;;6.54;100.00
21086;BME280;72320;50.082;20.000;2023-12-20T07:35:43;98404.39;;;6.53;100.00
21086;BME280;72320;50.082;20.000;2023-12-20T07:38:11;98403.56;;;6.52;100.00
21086;BME280;72320;50.082;20.000;2023-12-20T07:40:38;98410.34;;;6.51;100.00
21086;BME280;72320;50.082;20.000;2023-12-20T07:43:04;98411.00;;;6.51;100.00
21086;BME280;72320;50.082;20.000;2023-12-20T07:45:30;98404.59;;;6.50;100.00
21086;BME280;72320;50.082;20.000;2023-12-20T07:47:56;98409.05;;;6.44;100.00
21086;BME280;72320;50.082;20.000;2023-12-20T07:50:22;98408.67;;;6.44;100.00
21086;BME280;72320;50.082;20.000;2023-12-20T07:52:48;98406.77;;;6.38;100.00
21086;BME280;72320;50.082;20.000;2023-12-20T07:55:14;98419.04;;;6.47;100.00
21086;BME280;72320;50.082;20.000;2023-12-20T07:57:40;98413.52;;;6.45;100.00
21086;BME280;72320;50.082;20.000;2023-12-20T08:00:06;98415.19;;;6.39;100.00
21086;BME280;72320;50.082;20.000;2023-12-20T08:02:32;98415.68;;;6.34;100.00
21086;BME280;72320;50.082;20.000;2023-12-20T08:04:58;98418.94;;;6.43;100.00
21086;BME280;72320;50.082;20.000;2023-12-20T08:07:24;98411.78;;;6.40;100.00
21086;BME280;72320;50.082;20.000;2023-12-20T08:09:50;98425.27;;;6.40;100.00
21086;BME280;72320;50.082;20.000;2023-12-20T08:12:17;98425.50;;;6.34;100.00
21086;BME280;72320;50.082;20.000;2023-12-20T08:14:43;98424.80;;;6.28;100.00
21086;BME280;72320;50.082;20.000;2023-12-20T08:17:10;98430.75;;;6.31;100.00
21086;BME280;72320;50.082;20.000;2023-12-20T08:19:36;98431.30;;;6.31;100.00
21086;BME280;72320;50.082;20.000;2023-12-20T08:22:02;98428.36;;;6.30;100.00
21086;BME280;72320;50.082;20.000;2023-12-20T08:24:31;98423.44;;;6.25;100.00
21086;BME280;72320;50.082;20.000;2023-12-20T08:26:59;98429.52;;;6.26;100.00
21086;BME280;72320;50.082;20.000;2023-12-20T08:29:26;98423.06;;;6.31;100.00
21086;BME280;72320;50.082;20.000;2023-12-20T08:31:55;98424.06;;;6.37;100.00
21086;BME280;72320;50.082;20.000;2023-12-20T08:34:22;98420.53;;;6.40;100.00
21086;BME280;72320;50.082;20.000;2023-12-20T08:36:50;98417.23;;;6.39;100.00
21086;BME280;72320;50.082;20.000;2023-12-20T08:39:17;98413.84;;;6.35;100.00
21086;BME280;72320;50.082;20.000;2023-12-20T08:41:43;98414.61;;;6.26;100.00
21086;BME280;72320;50.082;20.000;2023-12-20T08:44:10;98417.99;;;6.28;100.00
21086;BME280;72320;50.082;20.000;2023-12-20T08:46:36;98419.98;;;6.32;100.00
21086;BME280;72320;50.082;20.000;2023-12-20T08:49:02;98418.84;;;6.28;100.00
21086;BME280;72320;50.082;20.000;2023-12-20T08:51:28;98423.71;;;6.21;100.00
21086;BME280;72320;50.082;20.000;2023-12-20T08:53:54;98420.95;;;6.22;100.00
21086;BME280;72320;50.082;20.000;2023-12-20T08:56:20;98415.77;;;6.29;100.00
21086;BME280;72320;50.082;20.000;2023-12-20T08:58:46;98420.23;;;6.28;100.00
21086;BME280;72320;50.082;20.000;2023-12-20T09:01:14;98418.63;;;6.21;100.00
21086;BME280;72320;50.082;20.000;2023-12-20T09:03:40;98424.07;;;6.21;100.00
21086;BME280;72320;50.082;20.000;2023-12-20T09:06:06;98421.11;;;6.23;100.00
21086;BME280;72320;50.082;20.000;2023-12-20T09:08:32;98419.92;;;6.11;100.00
21086;BME280;72320;50.082;20.000;2023-12-20T09:10:59;98425.77;;;6.14;100.00
21086;BME280;72320;50.082;20.000;2023-12-20T09:13:26;98427.75;;;6.15;100.00
21086;BME280;72320;50.082;20.000;2023-12-20T09:15:58;98428.14;;;6.26;100.00
21086;BME280;72320;50.082;20.000;2023-12-20T09:18:25;98418.38;;;6.30;100.00
21086;BME280;72320;50.082;20.000;2023-12-20T09:20:51;98415.80;;;6.21;100.00
21086;BME280;72320;50.082;20.000;2023-12-20T09:23:17;98421.83;;;6.06;100.00
21086;BME280;72320;50.082;20.000;2023-12-20T09:25:44;98420.99;;;6.11;100.00
21086;BME280;72320;50.082;20.000;2023-12-20T09:28:10;98413.88;;;6.18;100.00
21086;BME280;72320;50.082;20.000;2023-12-20T09:30:36;98416.38;;;6.12;100.00
21086;BME280;72320;50.082;20.000;2023-12-20T09:33:06;98411.03;;;6.08;100.00
21086;BME280;72320;50.082;20.000;2023-12-20T09:35:33;98412.94;;;6.08;100.00
21086;BME280;72320;50.082;20.000;2023-12-20T09:37:59;98411.87;;;6.08;100.00
21086;BME280;72320;50.082;20.000;2023-12-20T09:40:26;98409.22;;;5.97;100.00
21086;BME280;72320;50.082;20.000;2023-12-20T09:43:11;98414.21;;;6.05;100.00
21086;BME280;72320;50.082;20.000;2023-12-20T09:45:40;98400.05;;;6.06;100.00
21086;BME280;72320;50.082;20.000;2023-12-20T09:48:10;98401.88;;;5.97;100.00
21086;BME280;72320;50.082;20.000;2023-12-20T09:50:36;98404.16;;;6.00;100.00
21086;BME280;72320;50.082;20.000;2023-12-20T09:53:04;98403.21;;;6.01;100.00
21086;BME280;72320;50.082;20.000;2023-12-20T09:55:32;98395.70;;;6.03;100.00
21086;BME280;72320;50.082;20.000;2023-12-20T09:58:00;98392.05;;;6.02;100.00
21086;BME280;72320;50.082;20.000;2023-12-20T10:00:26;98390.02;;;6.07;100.00
21086;BME280;72320;50.082;20.000;2023-12-20T10:03:01;98384.20;;;6.04;100.00
21086;BME280;72320;50.082;20.000;2023-12-20T10:05:32;98384.02;;;5.93;100.00
21086;BME280;72320;50.082;20.000;2023-12-20T10:08:00;98384.93;;;5.95;100.00
21086;BME280;72320;50.082;20.000;2023-12-20T10:10:27;98377.23;;;5.98;100.00
21086;BME280;72320;50.082;20.000;2023-12-20T10:13:07;98380.59;;;5.92;100.00
21086;BME280;72320;50.082;20.000;2023-12-20T10:15:35;98376.68;;;5.82;100.00
21086;BME280;72320;50.082;20.000;2023-12-20T10:18:03;98373.48;;;5.91;100.00
21086;BME280;72320;50.082;20.000;2023-12-20T10:20:30;98376.02;;;5.92;100.00
21086;BME280;72320;50.082;20.000;2023-12-20T10:22:58;98374.02;;;5.88;100.00
21086;BME280;72320;50.082;20.000;2023-12-20T10:25:25;98379.34;;;5.89;100.00
21086;BME280;72320;50.082;20.000;2023-12-20T10:28:15;98374.09;;;5.89;100.00
21086;BME280;72320;50.082;20.000;2023-12-20T10:30:45;98379.64;;;5.71;100.00
21086;BME280;72320;50.082;20.000;2023-12-20T10:33:11;98377.66;;;5.74;100.00
21086;BME280;72320;50.082;20.000;2023-12-20T10:35:39;98375.45;;;5.73;100.00
21086;BME280;72320;50.082;20.000;2023-12-20T10:38:07;98375.76;;;5.71;100.00
21086;BME280;72320;50.082;20.000;2023-12-20T10:40:37;98376.41;;;5.75;100.00
21086;BME280;72320;50.082;20.000;2023-12-20T10:43:04;98380.43;;;5.75;100.00
21086;BME280;72320;50.082;20.000;2023-12-20T10:45:30;98380.48;;;5.76;100.00
21086;BME280;72320;50.082;20.000;2023-12-20T10:47:57;98375.86;;;5.75;100.00
21086;BME280;72320;50.082;20.000;2023-12-20T10:50:27;98373.65;;;5.74;100.00
21086;BME280;72320;50.082;20.000;2023-12-20T10:52:55;98364.84;;;5.71;100.00
21086;BME280;72320;50.082;20.000;2023-12-20T10:55:25;98364.20;;;5.65;100.00
21086;BME280;72320;50.082;20.000;2023-12-20T10:57:52;98363.40;;;5.72;100.00
21086;BME280;72320;50.082;20.000;2023-12-20T11:00:19;98360.45;;;5.82;100.00
21086;BME280;72320;50.082;20.000;2023-12-20T11:02:49;98359.86;;;5.87;100.00
21086;BME280;72320;50.082;20.000;2023-12-20T11:08:09;98365.77;;;5.85;100.00
21086;BME280;72320;50.082;20.000;2023-12-20T11:10:58;98359.57;;;5.83;100.00
21086;BME280;72320;50.082;20.000;2023-12-20T11:13:39;98358.13;;;5.86;100.00
21086;BME280;72320;50.082;20.000;2023-12-20T11:16:07;98357.70;;;5.82;100.00
21086;BME280;72320;50.082;20.000;2023-12-20T11:18:33;98362.56;;;5.88;100.00
21086;BME280;72320;50.082;20.000;2023-12-20T11:21:05;98359.31;;;5.98;100.00
21086;BME280;72320;50.082;20.000;2023-12-20T11:23:32;98358.86;;;5.91;100.00
21086;BME280;72320;50.082;20.000;2023-12-20T11:26:02;98351.59;;;5.87;100.00
21086;BME280;72320;50.082;20.000;2023-12-20T11:28:29;98350.92;;;5.83;100.00
21086;BME280;72320;50.082;20.000;2023-12-20T11:30:58;98353.14;;;5.93;100.00
21086;BME280;72320;50.082;20.000;2023-12-20T11:33:30;98353.09;;;5.94;100.00
21086;BME280;72320;50.082;20.000;2023-12-20T11:35:59;98354.89;;;5.96;100.00
21086;BME280;72320;50.082;20.000;2023-12-20T11:38:53;98347.05;;;6.03;100.00
21086;BME280;72320;50.082;20.000;2023-12-20T11:41:23;98343.88;;;6.03;100.00
21086;BME280;72320;50.082;20.000;2023-12-20T11:43:56;98347.55;;;6.09;100.00
21086;BME280;72320;50.082;20.000;2023-12-20T11:46:22;98343.09;;;6.29;100.00
21086;BME280;72320;50.082;20.000;2023-12-20T11:48:48;98338.48;;;6.32;100.00
21086;BME280;72320;50.082;20.000;2023-12-20T11:51:15;98338.10;;;6.27;100.00
21086;BME280;72320;50.082;20.000;2023-12-20T11:53:41;98339.95;;;6.36;100.00
21086;BME280;72320;50.082;20.000;2023-12-20T11:56:10;98335.16;;;6.45;100.00
21086;BME280;72320;50.082;20.000;2023-12-20T11:58:36;98339.63;;;6.49;100.00
21086;BME280;72320;50.082;20.000;2023-12-20T12:01:03;98338.13;;;6.53;100.00
21086;BME280;72320;50.082;20.000;2023-12-20T12:03:30;98338.80;;;6.46;100.00
21086;BME280;72320;50.082;20.000;2023-12-20T12:05:57;98339.47;;;6.38;100.00
21086;BME280;72320;50.082;20.000;2023-12-20T12:08:24;98343.27;;;6.45;100.00
21086;BME280;72320;50.082;20.000;2023-12-20T12:10:50;98340.80;;;6.53;100.00
21086;BME280;72320;50.082;20.000;2023-12-20T12:13:16;98337.16;;;6.52;100.00
21086;BME280;72320;50.082;20.000;2023-12-20T12:15:42;98350.71;;;6.52;100.00
21086;BME280;72320;50.082;20.000;2023-12-20T12:18:08;98348.84;;;6.61;100.00
21086;BME280;72320;50.082;20.000;2023-12-20T12:20:37;98340.82;;;6.52;100.00
21086;BME280;72320;50.082;20.000;2023-12-20T12:23:05;98344.08;;;6.51;100.00
21086;BME280;72320;50.082;20.000;2023-12-20T12:25:35;98347.11;;;6.53;100.00
21086;BME280;72320;50.082;20.000;2023-12-20T12:28:02;98337.09;;;6.48;100.00
21086;BME280;72320;50.082;20.000;2023-12-20T12:30:28;98338.96;;;6.49;100.00
21086;BME280;72320;50.082;20.000;2023-12-20T12:32:56;98337.48;;;6.44;100.00
21086;BME280;72320;50.082;20.000;2023-12-20T12:35:22;98344.19;;;6.39;100.00
21086;BME280;72320;50.082;20.000;2023-12-20T12:40:36;98339.79;;;6.28;100.00
21086;BME280;72320;50.082;20.000;2023-12-20T12:43:03;98342.45;;;6.38;100.00
21086;BME280;72320;50.082;20.000;2023-12-20T12:45:29;98345.48;;;6.35;100.00
21086;BME280;72320;50.082;20.000;2023-12-20T12:47:56;98343.72;;;6.24;100.00
21086;BME280;72320;50.082;20.000;2023-12-20T12:50:22;98343.36;;;6.24;100.00
21086;BME280;72320;50.082;20.000;2023-12-20T12:52:48;98340.95;;;6.24;100.00
21086;BME280;72320;50.082;20.000;2023-12-20T12:55:13;98341.91;;;6.25;100.00
21086;BME280;72320;50.082;20.000;2023-12-20T12:57:40;98341.98;;;6.27;100.00
21086;BME280;72320;50.082;20.000;2023-12-20T13:00:07;98346.54;;;6.22;100.00
21086;BME280;72320;50.082;20.000;2023-12-20T13:02:35;98352.44;;;6.25;100.00
21086;BME280;72320;50.082;20.000;2023-12-20T13:05:01;98349.05;;;6.26;100.00
21086;BME280;72320;50.082;20.000;2023-12-20T13:07:28;98345.73;;;6.23;100.00
21086;BME280;72320;50.082;20.000;2023-12-20T13:09:54;98343.56;;;6.32;100.00
21086;BME280;72320;50.082;20.000;2023-12-20T13:12:21;98335.54;;;6.40;100.00
21086;BME280;72320;50.082;20.000;2023-12-20T13:14:47;98339.45;;;6.44;100.00
21086;BME280;72320;50.082;20.000;2023-12-20T13:17:13;98351.88;;;6.50;100.00
21086;BME280;72320;50.082;20.000;2023-12-20T13:19:39;98354.42;;;6.44;100.00
21086;BME280;72320;50.082;20.000;2023-12-20T13:22:05;98356.00;;;6.43;100.00
21086;BME280;72320;50.082;20.000;2023-12-20T13:24:31;98352.11;;;6.44;100.00
21086;BME280;72320;50.082;20.000;2023-12-20T13:26:58;98353.61;;;6.39;100.00
21086;BME280;72320;50.082;20.000;2023-12-20T13:29:24;98356.33;;;6.36;100.00
21086;BME280;72320;50.082;20.000;2023-12-20T13:31:53;98358.13;;;6.32;100.00
21086;BME280;72320;50.082;20.000;2023-12-20T13:34:19;98358.02;;;6.37;100.00
21086;BME280;72320;50.082;20.000;2023-12-20T13:36:45;98360.39;;;6.41;100.00
21086;BME280;72320;50.082;20.000;2023-12-20T13:39:13;98361.02;;;6.39;100.00
21086;BME280;72320;50.082;20.000;2023-12-20T13:41:39;98361.35;;;6.45;100.00
21086;BME280;72320;50.082;20.000;2023-12-20T13:44:06;98363.66;;;6.52;100.00
21086;BME280;72320;50.082;20.000;2023-12-20T13:46:32;98365.67;;;6.62;100.00
21086;BME280;72320;50.082;20.000;2023-12-20T13:48:58;98360.67;;;6.65;100.00
21086;BME280;72320;50.082;20.000;2023-12-20T13:51:24;98360.61;;;6.64;100.00
21086;BME280;72320;50.082;20.000;2023-12-20T13:53:50;98365.64;;;6.62;100.00